createdAt,value
2019-01-02T00:01:37.522Z,100065.59
2019-01-02T00:07:42.549Z,100070.27
2019-01-02T00:13:47.113Z,100088.16
2019-01-02T00:19:51.781Z,100067.64
2019-01-02T00:25:56.400Z,100057.84
2019-01-02T00:32:00.977Z,100063.84
2019-01-02T00:38:05.879Z,100071.84
2019-01-02T00:44:10.518Z,100065.11
2019-01-02T00:50:15.143Z,100044.75
2019-01-02T00:56:19.751Z,100071.36
2019-01-02T01:02:24.678Z,100077.48
2019-01-02T01:08:29.245Z,100091.10
2019-01-02T01:14:34.082Z,100083.11
2019-01-02T01:20:38.773Z,100105.84
2019-01-02T01:26:43.340Z,100102.30
2019-01-02T01:32:47.943Z,100107.05
2019-01-02T01:38:53.048Z,100113.66
2019-01-02T01:44:57.699Z,100118.13
2019-01-02T01:51:02.328Z,100118.00
2019-01-02T01:57:07.018Z,100122.30
2019-01-02T02:03:11.675Z,100138.02
2019-01-02T02:09:16.612Z,100139.13
2019-01-02T02:15:21.537Z,100142.91
2019-01-02T02:21:26.469Z,100145.83
2019-01-02T02:27:31.296Z,100139.41
2019-01-02T02:33:36.231Z,100141.67
2019-01-02T02:39:41.190Z,100161.14
2019-01-02T02:45:46.252Z,100165.50
2019-01-02T02:51:51.191Z,100163.36
2019-01-02T02:57:56.018Z,100158.03
2019-01-02T03:04:00.587Z,100173.25
2019-01-02T03:10:09.527Z,100188.99
2019-01-02T03:16:14.366Z,100198.66
2019-01-02T03:22:20.971Z,100201.36
2019-01-02T03:28:25.808Z,100202.61
2019-01-02T03:34:30.721Z,100199.08
2019-01-02T03:40:35.649Z,100213.66
2019-01-02T03:46:40.343Z,100228.02
2019-01-02T03:52:44.972Z,100241.95
2019-01-02T03:58:49.539Z,100250.28
2019-01-02T04:04:54.116Z,100249.30
2019-01-02T04:10:58.752Z,100258.59
2019-01-02T04:17:03.335Z,100256.63
2019-01-02T04:23:08.021Z,100259.22
2019-01-02T04:29:12.569Z,100267.78
2019-01-02T04:35:17.161Z,100267.48
2019-01-02T04:41:21.791Z,100275.45
2019-01-02T04:47:26.358Z,100278.30
2019-01-02T04:53:30.991Z,100281.19
2019-01-02T04:59:35.573Z,100290.12
2019-01-02T05:05:40.147Z,100295.20
2019-01-02T05:11:44.758Z,100296.20
2019-01-02T05:17:49.309Z,100291.33
2019-01-02T05:23:53.870Z,100295.36
2019-01-02T05:29:58.433Z,100299.23
2019-01-02T05:36:02.998Z,100310.38
2019-01-02T05:42:07.559Z,100320.06
2019-01-02T05:48:12.122Z,100327.67
2019-01-02T05:54:16.700Z,100336.75
2019-01-02T06:00:21.327Z,100336.75
2019-01-02T06:06:25.898Z,100342.75
2019-01-02T06:12:30.461Z,100352.31
2019-01-02T06:18:35.022Z,100348.48
2019-01-02T06:24:39.603Z,100351.54
2019-01-02T06:30:44.284Z,100347.52
2019-01-02T06:36:48.918Z,100357.98
2019-01-02T06:42:53.472Z,100372.98
2019-01-02T06:48:58.047Z,100388.07
2019-01-02T06:55:02.599Z,100387.98
2019-01-02T07:01:07.234Z,100388.02
2019-01-02T07:07:11.859Z,100396.56
2019-01-02T07:13:16.408Z,100417.66
2019-01-02T07:19:22.678Z,100416.81
2019-01-02T07:25:27.259Z,100442.52
2019-01-02T07:31:31.800Z,100440.10
2019-01-02T07:37:43.742Z,100454.27
2019-01-02T07:44:25.936Z,100463.11
2019-01-02T07:51:06.282Z,100488.78
2019-01-02T07:57:46.892Z,100485.28
2019-01-02T08:04:28.980Z,100493.24
2019-01-02T08:11:00.357Z,100494.29
2019-01-02T08:17:18.354Z,100510.28
2019-01-02T08:24:04.747Z,100519.92
2019-01-02T08:30:28.624Z,100525.89
2019-01-02T08:37:10.533Z,100528.16
2019-01-02T08:43:28.512Z,100530.97
2019-01-02T08:50:03.030Z,100539.55
2019-01-02T08:56:28.771Z,100552.59
2019-01-02T09:02:43.704Z,100561.02
2019-01-02T09:09:21.268Z,100582.35
2019-01-02T09:15:51.075Z,100609.75
2019-01-02T09:22:08.725Z,100620.25
2019-01-02T09:28:49.433Z,100624.11
2019-01-02T09:35:38.830Z,100631.83
2019-01-02T09:42:02.513Z,100645.08
2019-01-02T09:48:45.963Z,100654.47
2019-01-02T09:55:06.798Z,100653.90
2019-01-02T10:01:39.972Z,100661.25
2019-01-02T10:07:51.823Z,100670.30
2019-01-02T10:14:45.806Z,100680.53
2019-01-02T10:21:12.670Z,100677.02
2019-01-02T10:27:47.009Z,100671.98
2019-01-02T10:34:16.768Z,100687.88
2019-01-02T10:40:51.323Z,100690.28
2019-01-02T10:47:12.527Z,100711.03
2019-01-02T10:53:36.747Z,100706.55
2019-01-02T11:00:03.530Z,100715.72
2019-01-02T11:06:40.746Z,100712.25
2019-01-02T11:13:10.532Z,100717.41
2019-01-02T11:19:42.072Z,100716.58
2019-01-02T11:26:24.021Z,100712.57
2019-01-02T11:32:58.303Z,100712.11
2019-01-02T11:39:22.376Z,100722.72
2019-01-02T11:45:26.933Z,100734.91
2019-01-02T11:51:31.493Z,100726.94
2019-01-02T11:57:36.053Z,100724.17
2019-01-02T12:03:40.610Z,100728.39
2019-01-02T12:09:45.192Z,100730.44
2019-01-02T12:15:49.763Z,100719.22
2019-01-02T12:21:54.372Z,100729.95
2019-01-02T12:27:58.954Z,100727.64
2019-01-02T12:34:03.504Z,100727.25
2019-01-02T12:40:08.794Z,100744.50
2019-01-02T12:46:13.342Z,100736.91
2019-01-02T12:52:17.904Z,100749.46
2019-01-02T12:58:22.537Z,100742.94
2019-01-02T13:04:40.169Z,100741.78
2019-01-02T13:10:49.391Z,100754.30
2019-01-02T13:17:18.813Z,100765.30
2019-01-02T13:23:36.542Z,100779.05
2019-01-02T13:30:06.347Z,100784.12
2019-01-02T13:36:27.114Z,100790.87
2019-01-02T13:42:48.074Z,100800.77
2019-01-02T13:49:22.418Z,100808.95
2019-01-02T13:55:26.971Z,100844.67
2019-01-02T14:01:31.527Z,100831.28
2019-01-02T14:07:36.967Z,100833.45
2019-01-02T14:13:41.525Z,100847.56
2019-01-02T14:19:46.078Z,100861.27
2019-01-02T14:25:50.634Z,100861.13
2019-01-02T14:31:55.185Z,100866.08
2019-01-02T14:37:59.728Z,100867.67
2019-01-02T14:44:04.343Z,100872.45
2019-01-02T14:50:10.022Z,100869.61
2019-01-02T14:56:14.591Z,100878.48
2019-01-02T15:02:19.299Z,100882.65
2019-01-02T15:08:23.838Z,100896.89
2019-01-02T15:14:28.383Z,100906.58
2019-01-02T15:20:32.933Z,100928.38
2019-01-02T15:26:37.489Z,100929.08
2019-01-02T15:32:42.043Z,100943.31
2019-01-02T15:38:46.604Z,100949.09
2019-01-02T15:44:51.174Z,100947.43
2019-01-02T15:50:55.728Z,100964.08
2019-01-02T15:57:00.272Z,100973.60
2019-01-02T16:03:04.899Z,100980.30
2019-01-02T16:09:09.610Z,100978.73
2019-01-02T16:15:14.166Z,100989.33
2019-01-02T16:21:19.933Z,101000.89
2019-01-02T16:27:24.483Z,101004.58
2019-01-02T16:33:29.107Z,101010.52
2019-01-02T16:39:33.653Z,101013.77
2019-01-02T16:45:38.215Z,101020.16
2019-01-02T16:51:42.782Z,101027.37
2019-01-02T16:57:47.337Z,101033.79
2019-01-02T17:03:51.912Z,101036.59
2019-01-02T17:09:56.551Z,101055.88
2019-01-02T17:16:01.204Z,101059.87
2019-01-02T17:22:05.750Z,101065.72
2019-01-02T17:28:10.300Z,101074.84
2019-01-02T17:34:14.857Z,101076.34
2019-01-02T17:40:19.442Z,101078.20
2019-01-02T17:46:23.990Z,101086.51
2019-01-02T17:52:28.540Z,101089.49
2019-01-02T17:58:33.122Z,101100.80
2019-01-02T18:04:37.736Z,101106.39
2019-01-02T18:10:42.289Z,101108.63
2019-01-02T18:16:46.853Z,101111.48
2019-01-02T18:22:51.406Z,101119.50
2019-01-02T18:28:55.994Z,101128.86
2019-01-02T18:35:00.557Z,101136.31
2019-01-02T18:41:05.128Z,101147.38
2019-01-02T18:47:09.761Z,101146.42
2019-01-02T18:53:14.313Z,101152.33
2019-01-02T18:59:18.947Z,101151.78
2019-01-02T19:05:23.501Z,101151.38
2019-01-02T19:11:28.060Z,101157.25
2019-01-02T19:17:32.611Z,101159.66
2019-01-02T19:23:37.168Z,101168.81
2019-01-02T19:29:41.737Z,101170.91
2019-01-02T19:35:46.355Z,101170.62
2019-01-02T19:41:50.956Z,101185.58
2019-01-02T19:47:55.488Z,101181.42
2019-01-02T19:54:00.040Z,101191.03
2019-01-02T20:00:07.324Z,101191.75
2019-01-02T20:06:11.875Z,101191.68
2019-01-02T20:12:16.444Z,101188.80
2019-01-02T20:18:21.573Z,101194.66
2019-01-02T20:24:26.148Z,101192.50
2019-01-02T20:30:30.717Z,101187.02
2019-01-02T20:36:40.563Z,101187.06
2019-01-02T20:42:41.623Z,101186.16
2019-01-02T20:48:46.197Z,101191.34
2019-01-02T20:54:50.746Z,101181.15
2019-01-02T21:00:55.401Z,101177.63
2019-01-02T21:06:59.949Z,101174.55
2019-01-02T21:13:04.597Z,101178.37
2019-01-02T21:19:09.272Z,101168.84
2019-01-02T21:25:13.839Z,101170.84
2019-01-02T21:31:18.476Z,101174.98
2019-01-02T21:37:23.091Z,101172.33
2019-01-02T21:43:27.649Z,101175.91
2019-01-02T21:49:32.232Z,101168.69
2019-01-02T21:55:36.826Z,101175.28
2019-01-02T22:01:41.366Z,101178.27
2019-01-02T22:07:45.917Z,101182.83
2019-01-02T22:13:50.506Z,101186.97
2019-01-02T22:19:55.042Z,101176.48
2019-01-02T22:25:59.671Z,101175.75
2019-01-02T22:32:04.233Z,101181.03
2019-01-02T22:38:08.815Z,101179.13
2019-01-02T22:44:13.384Z,101177.19
2019-01-02T22:50:17.972Z,101181.70
2019-01-02T22:56:22.525Z,101179.29
2019-01-02T23:02:28.768Z,101179.72
2019-01-02T23:08:37.923Z,101183.02
2019-01-02T23:14:44.151Z,101179.91
2019-01-02T23:20:53.079Z,101181.67
2019-01-02T23:27:14.056Z,101178.84
2019-01-02T23:33:36.132Z,101180.63
2019-01-02T23:39:49.316Z,101183.21
2019-01-02T23:45:55.578Z,101181.73
2019-01-02T23:52:01.773Z,101197.03
2019-01-02T23:58:10.714Z,101213.80
